Terminal Aerodrome Forecast
Issued by NWS

Home | Current Version | Previous Version | Text Only | Print | Product List | Glossary On
Versions: 1 2 3 4 5 6 7 8 9 10 11 12 13 14 15 16 17
887
FTUS44 KLZK 300529
TAFLIT
TAF
KLIT 300529Z 3006/0106 08008KT 6SM -TSRA BR SCT008 OVC040CB
      TEMPO 3006/3009 3SM TSRA BR SCT008 OVC025CB
     FM300900 10008KT 5SM -TSRA BR BKN008 OVC025CB
     FM301100 13005KT 4SM -TSRA BR BKN005 OVC020CB
     FM301500 18010KT 6SM -RA BR BKN008 OVC015=

USA.gov is the U.S. government's official web portal to all federal, state and local government web resources and services.